createdAt,value
2022-10-17T00:01:45.111Z,71.72
2022-10-17T00:04:27.325Z,71.73
2022-10-17T00:07:16.072Z,71.77
2022-10-17T00:09:58.489Z,71.47
2022-10-17T00:12:48.060Z,71.76
2022-10-17T00:15:37.056Z,71.70
2022-10-17T00:18:19.361Z,71.82
2022-10-17T00:21:08.032Z,71.71
2022-10-17T00:23:50.571Z,72.02
2022-10-17T00:26:46.166Z,71.63
2022-10-17T00:29:34.339Z,71.64
2022-10-17T00:32:17.127Z,71.72
2022-10-17T00:35:06.582Z,71.48
2022-10-17T00:37:49.064Z,72.02
2022-10-17T00:40:37.323Z,72.09
2022-10-17T00:43:26.056Z,72.43
2022-10-17T00:46:15.349Z,72.54
2022-10-17T00:49:01.057Z,72.03
2022-10-17T00:52:04.369Z,72.00
2022-10-17T00:54:52.059Z,71.72
2022-10-17T00:57:41.352Z,71.22
2022-10-17T01:00:25.048Z,71.37
2022-10-17T01:03:15.497Z,71.67
2022-10-17T01:05:58.064Z,71.17
2022-10-17T01:08:47.099Z,71.59
2022-10-17T01:12:13.075Z,71.46
2022-10-17T01:15:25.319Z,71.27
2022-10-17T01:18:22.049Z,71.52
2022-10-17T01:21:13.344Z,71.47
2022-10-17T01:24:34.062Z,71.62
2022-10-17T01:27:41.333Z,72.06
2022-10-17T01:31:01.054Z,71.35
2022-10-17T01:34:02.108Z,71.58
2022-10-17T01:37:26.313Z,71.80
2022-10-17T01:40:23.046Z,71.57
2022-10-17T01:43:47.055Z,72.12
2022-10-17T01:46:45.463Z,72.10
2022-10-17T01:49:33.063Z,71.90
2022-10-17T01:52:24.968Z,71.66
2022-10-17T01:55:24.045Z,72.06
2022-10-17T01:58:11.803Z,72.31
2022-10-17T02:01:03.097Z,71.92
2022-10-17T02:03:54.050Z,72.28
2022-10-17T02:06:36.353Z,71.47
2022-10-17T02:09:34.118Z,72.20
2022-10-17T02:12:34.370Z,71.26
2022-10-17T02:15:47.056Z,69.74
2022-10-17T02:18:49.486Z,70.46
2022-10-17T02:21:41.061Z,68.85
2022-10-17T02:24:47.347Z,66.56
2022-10-17T02:28:02.048Z,67.79
2022-10-17T02:31:02.050Z,67.32
2022-10-17T02:34:02.052Z,68.02
2022-10-17T02:36:57.058Z,66.16
2022-10-17T02:39:41.334Z,65.25
2022-10-17T02:42:33.400Z,67.67
2022-10-17T02:45:17.480Z,66.56
2022-10-17T02:48:17.055Z,65.58
2022-10-17T02:51:24.035Z,62.49
2022-10-17T02:54:18.048Z,65.29
2022-10-17T02:57:10.323Z,65.59
2022-10-17T03:00:00.111Z,65.08
2022-10-17T03:02:55.351Z,65.74
2022-10-17T03:05:44.028Z,62.21
2022-10-17T03:08:27.380Z,64.73
2022-10-17T03:11:10.122Z,59.96
2022-10-17T03:13:59.330Z,59.96
2022-10-17T03:16:42.113Z,58.11
2022-10-17T03:19:32.326Z,58.41
2022-10-17T03:22:15.051Z,59.68
2022-10-17T03:25:04.031Z,60.03
2022-10-17T03:27:46.514Z,57.62
2022-10-17T03:30:35.051Z,57.24
2022-10-17T03:33:24.028Z,57.83
2022-10-17T03:36:24.319Z,57.25
2022-10-17T03:39:07.025Z,56.53
2022-10-17T03:41:50.885Z,56.21
2022-10-17T03:44:40.034Z,54.82
2022-10-17T03:47:29.590Z,52.84
2022-10-17T03:50:13.557Z,50.87
2022-10-17T03:53:03.016Z,47.09
2022-10-17T03:55:52.043Z,45.94
2022-10-17T03:58:34.291Z,45.37
2022-10-17T04:01:25.158Z,47.21
2022-10-17T04:04:08.219Z,46.93
2022-10-17T04:07:00.052Z,48.05
2022-10-17T04:09:45.994Z,48.87
2022-10-17T04:12:37.057Z,44.72
2022-10-17T04:15:20.253Z,40.05
2022-10-17T04:18:09.101Z,41.99
2022-10-17T04:20:57.810Z,38.49
2022-10-17T04:23:41.034Z,39.98
2022-10-17T04:26:38.253Z,40.10
2022-10-17T04:29:28.090Z,39.37
2022-10-17T04:32:19.416Z,38.46
2022-10-17T04:35:16.038Z,41.29
2022-10-17T04:38:15.021Z,37.18
2022-10-17T04:41:05.097Z,36.65
2022-10-17T04:43:54.324Z,35.04
2022-10-17T04:46:38.047Z,36.97
2022-10-17T04:49:27.041Z,36.61
2022-10-17T04:52:17.482Z,36.02
2022-10-17T04:55:07.044Z,38.34
2022-10-17T04:57:49.321Z,37.92
2022-10-17T05:00:39.171Z,35.34
2022-10-17T05:03:28.312Z,37.27
2022-10-17T05:06:30.068Z,39.70
2022-10-17T05:09:32.450Z,37.72
2022-10-17T05:12:21.034Z,35.21
2022-10-17T05:15:03.462Z,34.74
2022-10-17T05:17:52.050Z,35.25
2022-10-17T05:20:37.528Z,38.61
2022-10-17T05:23:26.033Z,37.26
2022-10-17T05:26:08.326Z,33.60
2022-10-17T05:28:57.094Z,36.84
2022-10-17T05:31:41.491Z,38.56
2022-10-17T05:34:30.028Z,34.62
2022-10-17T05:37:12.470Z,33.42
2022-10-17T05:40:05.032Z,37.65
2022-10-17T05:42:54.519Z,33.93
2022-10-17T05:45:45.041Z,38.01
2022-10-17T05:48:30.447Z,36.28
2022-10-17T05:51:20.614Z,33.21
2022-10-17T05:54:04.480Z,30.35
2022-10-17T05:56:53.045Z,37.04
2022-10-17T05:59:39.400Z,34.05
2022-10-17T06:02:32.384Z,31.22
2022-10-17T06:05:16.749Z,32.43
2022-10-17T06:08:06.019Z,32.97
2022-10-17T06:10:55.047Z,31.35
2022-10-17T06:13:43.298Z,33.11
2022-10-17T06:16:32.032Z,34.05
2022-10-17T06:19:15.277Z,32.71
2022-10-17T06:22:04.030Z,35.86
2022-10-17T06:24:54.188Z,34.30
2022-10-17T06:27:49.076Z,31.67
2022-10-17T06:30:31.239Z,35.22
2022-10-17T06:33:20.113Z,30.79
2022-10-17T06:36:02.723Z,29.74
2022-10-17T06:38:52.028Z,32.34
2022-10-17T06:41:45.600Z,31.49
2022-10-17T06:44:38.037Z,34.24
2022-10-17T06:47:40.245Z,32.08
2022-10-17T06:50:52.051Z,31.38
2022-10-17T06:53:43.385Z,33.68
2022-10-17T06:56:40.046Z,30.83
2022-10-17T06:59:35.412Z,30.22
2022-10-17T07:02:28.189Z,29.57
2022-10-17T07:05:12.017Z,32.67
2022-10-17T07:08:01.400Z,32.95
2022-10-17T07:10:53.292Z,29.39
2022-10-17T07:13:39.138Z,31.76
2022-10-17T07:16:22.337Z,32.70
2022-10-17T07:19:19.038Z,35.12
2022-10-17T07:22:08.981Z,33.42
2022-10-17T07:25:02.086Z,29.17
2022-10-17T07:28:07.926Z,33.21
2022-10-17T07:30:58.093Z,33.53
2022-10-17T07:33:40.441Z,31.47
2022-10-17T07:36:31.086Z,29.65
2022-10-17T07:39:15.331Z,33.08
2022-10-17T07:42:06.105Z,32.33
2022-10-17T07:44:48.601Z,31.12
2022-10-17T07:47:39.051Z,31.98
2022-10-17T07:50:31.239Z,33.59
2022-10-17T07:53:13.446Z,31.82
2022-10-17T07:56:02.094Z,35.43
2022-10-17T07:58:51.377Z,33.59
2022-10-17T08:01:34.109Z,32.22
2022-10-17T08:04:23.477Z,32.99
2022-10-17T08:07:18.571Z,30.95
2022-10-17T08:10:15.349Z,30.24
2022-10-17T08:13:05.830Z,31.85
2022-10-17T08:15:48.028Z,32.16
2022-10-17T08:18:37.457Z,33.70
2022-10-17T08:21:21.050Z,32.90
2022-10-17T08:24:11.013Z,31.01
2022-10-17T08:26:54.468Z,33.54
2022-10-17T08:29:43.042Z,33.71
2022-10-17T08:32:33.255Z,30.73
2022-10-17T08:35:23.214Z,29.98
2022-10-17T08:38:11.027Z,31.08
2022-10-17T08:41:05.488Z,31.38
2022-10-17T08:44:03.033Z,32.44
2022-10-17T08:46:49.655Z,31.43
2022-10-17T08:50:28.028Z,30.90
2022-10-17T08:53:44.039Z,31.23
2022-10-17T08:56:49.542Z,31.12
2022-10-17T08:59:39.086Z,31.05
2022-10-17T09:02:41.549Z,32.62
2022-10-17T09:05:52.102Z,32.63
2022-10-17T09:08:42.483Z,33.72
2022-10-17T09:12:12.038Z,33.83
2022-10-17T09:15:38.944Z,32.20
2022-10-17T09:18:51.048Z,31.18
2022-10-17T09:21:45.112Z,31.60
2022-10-17T09:24:46.500Z,31.13
2022-10-17T09:27:45.016Z,30.87
2022-10-17T09:30:44.663Z,29.99
2022-10-17T09:33:53.256Z,30.45
2022-10-17T09:36:44.083Z,32.58
2022-10-17T09:39:41.039Z,33.75
2022-10-17T09:42:34.075Z,31.71
2022-10-17T09:45:27.945Z,31.49
2022-10-17T09:48:47.789Z,30.89
2022-10-17T09:51:40.047Z,30.71
2022-10-17T09:54:27.271Z,31.55
2022-10-17T09:57:22.031Z,31.95
2022-10-17T10:03:29.032Z,31.69
2022-10-17T10:06:27.044Z,31.54
2022-10-17T10:09:09.897Z,31.75
2022-10-17T10:12:07.027Z,29.70
2022-10-17T10:14:56.031Z,32.24
2022-10-17T10:17:50.038Z,33.59
2022-10-17T10:20:47.818Z,31.70
2022-10-17T10:23:40.637Z,31.93
2022-10-17T10:26:31.405Z,32.99
2022-10-17T10:29:45.029Z,34.29
2022-10-17T10:32:37.026Z,33.87
2022-10-17T10:36:00.009Z,34.23
2022-10-17T10:38:44.383Z,33.58
2022-10-17T10:41:35.014Z,36.54
2022-10-17T10:44:23.311Z,40.01
2022-10-17T10:47:34.086Z,35.84
2022-10-17T10:50:17.344Z,35.26
2022-10-17T10:53:39.036Z,37.75
2022-10-17T10:56:32.329Z,37.28
2022-10-17T10:59:38.095Z,36.11
2022-10-17T11:02:44.445Z,33.20
2022-10-17T11:05:39.161Z,33.55
2022-10-17T11:08:42.438Z,32.94
2022-10-17T11:11:41.040Z,36.03
2022-10-17T11:14:36.015Z,39.08
2022-10-17T11:17:53.823Z,40.07
2022-10-17T11:21:01.084Z,39.18
2022-10-17T11:23:59.350Z,39.75
2022-10-17T11:26:47.035Z,40.27
2022-10-17T11:29:44.305Z,39.01
2022-10-17T11:32:39.027Z,43.07
2022-10-17T11:35:39.067Z,42.42
2022-10-17T11:38:27.018Z,41.63
2022-10-17T11:41:21.331Z,43.41
2022-10-17T11:44:11.022Z,45.37
2022-10-17T11:47:29.995Z,47.94
2022-10-17T11:53:55.010Z,45.09
2022-10-17T11:56:56.355Z,46.90
2022-10-17T12:00:05.418Z,46.61
2022-10-17T12:03:12.099Z,47.13
2022-10-17T12:06:03.362Z,48.16
2022-10-17T12:09:19.041Z,47.52
2022-10-17T12:12:12.031Z,46.84
2022-10-17T12:14:55.140Z,46.70
2022-10-17T12:17:50.030Z,46.82
2022-10-17T12:20:44.007Z,46.21
2022-10-17T12:23:34.478Z,45.98
2022-10-17T12:26:36.009Z,44.73
2022-10-17T12:29:43.025Z,47.13
2022-10-17T12:32:30.192Z,47.12
2022-10-17T12:35:36.039Z,48.25
2022-10-17T12:38:33.058Z,45.61
2022-10-17T12:41:15.320Z,48.40
2022-10-17T12:44:04.042Z,48.51
2022-10-17T12:47:18.049Z,47.82
2022-10-17T12:50:00.217Z,47.99
2022-10-17T12:52:49.084Z,47.93
2022-10-17T12:55:37.365Z,48.23
2022-10-17T12:58:24.995Z,48.86
2022-10-17T13:01:23.715Z,47.66
2022-10-17T13:04:14.015Z,49.02
2022-10-17T13:07:06.047Z,49.03
2022-10-17T13:09:52.323Z,49.46
2022-10-17T13:12:45.311Z,50.07
2022-10-17T13:15:29.310Z,50.31
2022-10-17T13:18:33.009Z,49.59
2022-10-17T13:21:30.017Z,49.51
2022-10-17T13:28:28.089Z,51.96
2022-10-17T13:31:45.330Z,51.02
2022-10-17T13:34:30.311Z,51.98
2022-10-17T13:37:24.020Z,51.58
2022-10-17T13:40:30.712Z,51.15
2022-10-17T13:43:24.024Z,51.23
2022-10-17T13:46:35.985Z,51.95
2022-10-17T13:49:45.044Z,51.97
2022-10-17T13:52:31.634Z,52.78
2022-10-17T13:55:28.109Z,52.93
2022-10-17T13:58:26.380Z,52.79
2022-10-17T14:01:17.095Z,54.06
2022-10-17T14:04:09.365Z,55.07
2022-10-17T14:07:01.052Z,55.50
2022-10-17T14:09:43.371Z,55.43
2022-10-17T14:12:36.035Z,55.58
2022-10-17T14:15:50.090Z,54.83
2022-10-17T14:18:44.045Z,53.65
2022-10-17T14:21:43.749Z,53.00
2022-10-17T14:24:37.047Z,52.76
2022-10-17T14:27:43.487Z,52.15
2022-10-17T14:30:55.231Z,51.37
2022-10-17T14:33:42.559Z,51.03
2022-10-17T14:36:52.048Z,52.70
2022-10-17T14:39:43.429Z,53.02
2022-10-17T14:42:32.300Z,52.34
2022-10-17T14:45:23.465Z,52.12
2022-10-17T14:48:22.281Z,52.33
2022-10-17T14:51:25.034Z,52.05
2022-10-17T14:54:34.026Z,53.21
2022-10-17T14:57:36.484Z,53.67
2022-10-17T15:00:27.038Z,54.45
2022-10-17T15:03:09.450Z,54.58
2022-10-17T15:06:00.100Z,55.61
2022-10-17T15:11:32.099Z,55.48
2022-10-17T15:14:14.465Z,55.54
2022-10-17T15:17:03.089Z,56.69
2022-10-17T15:19:45.332Z,56.84
2022-10-17T15:22:39.040Z,56.84
2022-10-17T15:25:44.417Z,57.24
2022-10-17T15:28:40.965Z,57.31
2022-10-17T15:31:32.008Z,57.82
2022-10-17T15:34:14.291Z,58.71
2022-10-17T15:37:03.034Z,58.71
2022-10-17T15:40:04.342Z,59.36
2022-10-17T15:43:12.865Z,58.54
2022-10-17T15:45:57.514Z,59.19
2022-10-17T15:48:46.030Z,58.76
2022-10-17T15:51:29.313Z,59.04
2022-10-17T15:54:18.000Z,58.82
2022-10-17T15:57:10.142Z,59.44
2022-10-17T16:00:00.034Z,59.01
2022-10-17T16:02:44.463Z,59.29
2022-10-17T16:05:35.019Z,58.93
2022-10-17T16:08:17.298Z,59.07
2022-10-17T16:11:06.018Z,58.95
2022-10-17T16:13:48.430Z,57.96
2022-10-17T16:16:38.024Z,59.25
2022-10-17T16:19:20.427Z,59.04
2022-10-17T16:22:12.019Z,58.74
2022-10-17T16:24:59.847Z,59.35
2022-10-17T16:27:49.011Z,59.18
2022-10-17T16:30:43.428Z,60.01
2022-10-17T16:33:24.999Z,59.66
2022-10-17T16:36:15.071Z,60.64
2022-10-17T16:38:58.582Z,60.96
2022-10-17T16:41:48.031Z,60.51
2022-10-17T16:44:36.992Z,61.15
2022-10-17T16:47:20.157Z,60.73
2022-10-17T16:50:09.007Z,59.86
2022-10-17T16:52:57.992Z,61.25
2022-10-17T16:55:47.053Z,60.51
2022-10-17T16:58:37.415Z,61.08
2022-10-17T17:01:32.383Z,60.99
2022-10-17T17:04:14.471Z,61.13
2022-10-17T17:07:03.016Z,60.53
2022-10-17T17:09:52.696Z,61.22
2022-10-17T17:12:36.059Z,60.51
2022-10-17T17:15:24.360Z,60.30
2022-10-17T17:18:07.472Z,60.74
2022-10-17T17:20:57.378Z,60.99
2022-10-17T17:23:43.011Z,61.95
2022-10-17T17:26:38.998Z,61.90
2022-10-17T17:29:31.073Z,61.75
2022-10-17T17:32:14.636Z,62.14
2022-10-17T17:35:04.017Z,62.66
2022-10-17T17:37:46.490Z,63.02
2022-10-17T17:40:35.046Z,62.94
2022-10-17T17:43:17.569Z,62.52
2022-10-17T17:46:10.052Z,62.77
2022-10-17T17:49:01.002Z,63.02
2022-10-17T17:51:54.033Z,63.40
2022-10-17T17:54:40.013Z,63.85
2022-10-17T17:57:30.005Z,64.56
2022-10-17T18:00:14.453Z,63.93
2022-10-17T18:03:03.986Z,64.51
2022-10-17T18:05:55.039Z,64.40
2022-10-17T18:08:45.509Z,64.29
2022-10-17T18:11:27.994Z,64.94
2022-10-17T18:14:24.801Z,64.36
2022-10-17T18:17:07.038Z,64.71
2022-10-17T18:19:56.007Z,64.77
2022-10-17T18:22:45.677Z,65.11
2022-10-17T18:25:35.219Z,65.13
2022-10-17T18:28:24.129Z,65.67
2022-10-17T18:31:20.503Z,65.11
2022-10-17T18:34:10.022Z,65.87
2022-10-17T18:36:53.926Z,66.21
2022-10-17T18:39:43.022Z,65.72
2022-10-17T18:42:25.721Z,65.79
2022-10-17T18:45:15.004Z,65.43
2022-10-17T18:47:57.382Z,65.01
2022-10-17T18:50:45.993Z,65.08
2022-10-17T18:53:35.999Z,66.25
2022-10-17T18:56:26.002Z,65.60
2022-10-17T18:59:08.499Z,64.88
2022-10-17T19:01:57.056Z,64.56
2022-10-17T19:04:46.048Z,64.99
2022-10-17T19:07:34.989Z,64.74
2022-10-17T19:10:26.749Z,64.93
2022-10-17T19:13:09.999Z,65.59
2022-10-17T19:15:59.412Z,64.83
2022-10-17T19:18:42.015Z,64.69
2022-10-17T19:21:31.427Z,64.17
2022-10-17T19:24:16.008Z,65.26
2022-10-17T19:27:00.496Z,64.49
2022-10-17T19:29:52.001Z,64.44
2022-10-17T19:32:34.557Z,65.49
2022-10-17T19:35:23.981Z,66.11
2022-10-17T19:38:18.994Z,65.61
2022-10-17T19:41:01.364Z,65.36
2022-10-17T19:43:51.996Z,64.93
2022-10-17T19:46:41.998Z,65.54
2022-10-17T19:49:24.433Z,64.91
2022-10-17T19:52:14.010Z,64.78
2022-10-17T19:54:56.417Z,65.68
2022-10-17T19:57:45.010Z,65.77
2022-10-17T20:00:36.019Z,65.80
2022-10-17T20:03:25.460Z,66.28
2022-10-17T20:06:08.023Z,66.68
2022-10-17T20:08:57.008Z,66.91
2022-10-17T20:11:45.990Z,66.65
2022-10-17T20:14:37.444Z,66.68
2022-10-17T20:17:24.038Z,66.79
2022-10-17T20:20:15.309Z,66.87
2022-10-17T20:22:58.038Z,66.79
2022-10-17T20:25:46.991Z,66.36
2022-10-17T20:28:29.307Z,67.22
2022-10-17T20:31:19.000Z,67.32
2022-10-17T20:34:05.394Z,66.68
2022-10-17T20:36:55.007Z,66.51
2022-10-17T20:39:38.282Z,67.35
2022-10-17T20:42:29.003Z,66.83
2022-10-17T20:45:18.697Z,67.04
2022-10-17T20:48:01.191Z,66.85
2022-10-17T20:50:51.997Z,67.28
2022-10-17T20:53:40.987Z,67.43
2022-10-17T20:56:49.991Z,67.54
2022-10-17T20:59:39.010Z,67.52
2022-10-17T21:02:21.277Z,67.41
2022-10-17T21:05:10.003Z,67.39
2022-10-17T21:07:52.261Z,67.67
2022-10-17T21:10:40.997Z,67.93
2022-10-17T21:13:23.282Z,67.22
2022-10-17T21:16:22.048Z,66.62
2022-10-17T21:19:05.358Z,67.64
2022-10-17T21:21:55.012Z,67.50
2022-10-17T21:24:37.306Z,68.07
2022-10-17T21:27:27.005Z,67.15
2022-10-17T21:30:22.862Z,67.58
2022-10-17T21:33:11.990Z,67.56
2022-10-17T21:35:54.272Z,66.92
2022-10-17T21:38:46.978Z,66.92
2022-10-17T21:41:31.910Z,67.12
2022-10-17T21:44:25.965Z,68.39
2022-10-17T21:47:08.362Z,67.47
2022-10-17T21:49:56.986Z,67.36
2022-10-17T21:52:45.968Z,67.26
2022-10-17T21:55:35.009Z,67.49
2022-10-17T21:58:23.990Z,68.30
2022-10-17T22:01:19.025Z,66.88
2022-10-17T22:04:05.254Z,67.96
2022-10-17T22:06:55.976Z,67.47
2022-10-17T22:09:38.280Z,67.69
2022-10-17T22:12:27.072Z,67.15
2022-10-17T22:15:15.974Z,67.91
2022-10-17T22:17:58.236Z,66.85
2022-10-17T22:20:48.996Z,66.73
2022-10-17T22:23:31.396Z,67.58
2022-10-17T22:26:20.985Z,67.01
2022-10-17T22:29:16.840Z,67.14
2022-10-17T22:32:05.990Z,67.30
2022-10-17T22:34:48.496Z,67.22
2022-10-17T22:37:36.976Z,67.40
2022-10-17T22:40:31.968Z,67.25
2022-10-17T22:43:14.986Z,67.56
2022-10-17T22:46:11.984Z,67.35
2022-10-17T22:48:54.130Z,67.41
2022-10-17T22:51:42.953Z,67.80
2022-10-17T22:54:31.970Z,67.42
2022-10-17T22:57:14.483Z,67.33
2022-10-17T23:00:02.954Z,67.56
2022-10-17T23:02:46.256Z,67.65
2022-10-17T23:05:34.994Z,67.44
2022-10-17T23:08:18.875Z,67.45
2022-10-17T23:11:07.981Z,67.11
2022-10-17T23:13:50.267Z,67.75
2022-10-17T23:16:38.943Z,67.74
2022-10-17T23:19:24.353Z,67.89
2022-10-17T23:22:13.960Z,67.59
2022-10-17T23:24:56.263Z,67.92
2022-10-17T23:27:44.967Z,67.93
2022-10-17T23:30:27.242Z,68.27
2022-10-17T23:33:17.962Z,67.92
2022-10-17T23:36:00.234Z,68.36
2022-10-17T23:38:51.730Z,68.33
2022-10-17T23:41:36.286Z,68.58
2022-10-17T23:44:24.989Z,68.22
2022-10-17T23:47:07.225Z,67.77
2022-10-17T23:49:56.296Z,68.17
2022-10-17T23:52:39.234Z,67.88
2022-10-17T23:55:27.963Z,67.84
2022-10-17T23:58:13.481Z,67.97
